Swain, NY (14884)

3:16 AM EST on December 26, 2014 (GMT -0500)
Dalton | Change Station
CLOSE
Current Station
Personal Weather Station
Location: Dalton, NY
Elevation: 1913 ft
Nearby Weather Stations

Elev 1913 ft 42.51 °N, 77.92 °W | Updated 13 minutes ago

Overcast
Overcast
33.7 °F
Feels Like 34 °F
N
0.0
Wind Variable Wind from ESE
Gusts 8.0 mph

Today
High -- | Low -- °F
--% Chance of Precip.
Yesterday
High -- | Low -- °F
Precip. -- in
7:39 AM 4:44 PM
Waxing Crescent, 23% visible
Pressure 30.21 in
Visibility 10.0 miles
Clouds Overcast 3300 ft
Windchill 34 °F
Dew Point 29 °F
Humidity 84%
Rainfall 0.00 in
Snow Depth Not available.
UV 0 out of 12
Pollen .10 out of 12
Air Quality Not available.
Flu Activity Not available.
METAR KDSV 260754Z AUTO 30006KT 10SM OVC033 04/M03 A3017 RMK AO2 SLP228 T00391028

More Conditions Fewer Conditions

Pressure 30.21 in
Visibility 10.0 miles
Clouds Overcast 3300 ft
Windchill 34 °F
Dew Point 29 °F
Humidity 84%
Rainfall 0.00 in
Snow Depth Not available.
UV 0 out of 12
Pollen .10 out of 12
Air Quality Not available.
Flu Activity Not available.
METAR KDSV 260754Z AUTO 30006KT 10SM OVC033 04/M03 A3017 RMK AO2 SLP228 T00391028

More Conditions Fewer Conditions

10-Day Weather Forecast

Almanac

Astronomy

Dec. 26, 2014 Rise Set
Actual Time
Civil Twilight
Nautical Twilight
Astronomical Twilight
Moon
Length of Visible Light
Length of Day
Tomorrow will be .
, % of the Moon is Illuminated

Today's Extremes

State Highs State Lows

Community

WunderPhotos

Upload Photos

1,780,570 photos uploaded!

WunderBlogs® & News

Nearby

Air Quality

  Air Quality AQ Index Pollutant
Not available.

Snow Depth

Station Depth Elevation

Earthquake Activity

City Distance Mag. Time & Date
Minimum magnitude displayed is 2.5.

Coastal Water Temperatures

Place Temperature

Nearby Weather Stations